sensor_id;sensor_type;location;lat;lon;timestamp;P1;durP1;ratioP1;P2;durP2;ratioP2
26946;SDS011;14501;52.282;10.560;2022-09-09T00:01:20;7.68;;;3.90;;
26946;SDS011;14501;52.282;10.560;2022-09-09T00:04:03;4.57;;;3.05;;
26946;SDS011;14501;52.282;10.560;2022-09-09T00:06:45;7.13;;;2.85;;
26946;SDS011;14501;52.282;10.560;2022-09-09T00:09:27;5.63;;;3.20;;
26946;SDS011;14501;52.282;10.560;2022-09-09T00:11:55;3.30;;;3.00;;
26946;SDS011;14501;52.282;10.560;2022-09-09T00:14:37;6.07;;;3.47;;
26946;SDS011;14501;52.282;10.560;2022-09-09T00:17:14;4.30;;;2.50;;
26946;SDS011;14501;52.282;10.560;2022-09-09T00:19:52;6.15;;;3.20;;
26946;SDS011;14501;52.282;10.560;2022-09-09T00:22:27;6.32;;;3.50;;
26946;SDS011;14501;52.282;10.560;2022-09-09T00:24:58;7.88;;;2.75;;
26946;SDS011;14501;52.282;10.560;2022-09-09T00:27:44;3.95;;;2.53;;
26946;SDS011;14501;52.282;10.560;2022-09-09T00:30:19;3.95;;;2.92;;
26946;SDS011;14501;52.282;10.560;2022-09-09T00:32:48;8.13;;;3.30;;
26946;SDS011;14501;52.282;10.560;2022-09-09T00:35:26;5.53;;;2.83;;
26946;SDS011;14501;52.282;10.560;2022-09-09T00:37:56;4.35;;;2.75;;
26946;SDS011;14501;52.282;10.560;2022-09-09T00:40:28;3.00;;;2.50;;
26946;SDS011;14501;52.282;10.560;2022-09-09T00:48:29;3.67;;;2.15;;
26946;SDS011;14501;52.282;10.560;2022-09-09T00:51:17;5.22;;;2.20;;
26946;SDS011;14501;52.282;10.560;2022-09-09T00:53:59;6.43;;;2.42;;
26946;SDS011;14501;52.282;10.560;2022-09-09T00:56:57;5.30;;;2.40;;
26946;SDS011;14501;52.282;10.560;2022-09-09T00:59:45;8.38;;;2.45;;
26946;SDS011;14501;52.282;10.560;2022-09-09T01:02:21;3.88;;;2.30;;
26946;SDS011;14501;52.282;10.560;2022-09-09T01:05:13;4.22;;;2.65;;
26946;SDS011;14501;52.282;10.560;2022-09-09T01:07:52;7.85;;;2.15;;
26946;SDS011;14501;52.282;10.560;2022-09-09T01:10:52;3.15;;;2.00;;
26946;SDS011;14501;52.282;10.560;2022-09-09T01:13:27;4.90;;;1.85;;
26946;SDS011;14501;52.282;10.560;2022-09-09T01:15:56;3.25;;;2.25;;
26946;SDS011;14501;52.282;10.560;2022-09-09T01:18:32;2.42;;;1.92;;
26946;SDS011;14501;52.282;10.560;2022-09-09T01:26:30;10.30;;;2.30;;
26946;SDS011;14501;52.282;10.560;2022-09-09T01:29:17;2.45;;;1.58;;
26946;SDS011;14501;52.282;10.560;2022-09-09T01:34:22;1.95;;;1.73;;
26946;SDS011;14501;52.282;10.560;2022-09-09T01:36:56;3.25;;;1.70;;
26946;SDS011;14501;52.282;10.560;2022-09-09T01:39:27;2.55;;;1.73;;
26946;SDS011;14501;52.282;10.560;2022-09-09T01:41:53;7.95;;;2.00;;
26946;SDS011;14501;52.282;10.560;2022-09-09T01:44:20;2.75;;;1.90;;
26946;SDS011;14501;52.282;10.560;2022-09-09T01:46:47;3.72;;;1.80;;
26946;SDS011;14501;52.282;10.560;2022-09-09T01:49:13;4.15;;;1.70;;
26946;SDS011;14501;52.282;10.560;2022-09-09T01:51:38;5.00;;;2.05;;
26946;SDS011;14501;52.282;10.560;2022-09-09T01:54:06;3.90;;;2.05;;
26946;SDS011;14501;52.282;10.560;2022-09-09T01:56:39;5.63;;;2.00;;
26946;SDS011;14501;52.282;10.560;2022-09-09T02:02:03;2.97;;;1.95;;
26946;SDS011;14501;52.282;10.560;2022-09-09T02:04:44;9.00;;;2.30;;
26946;SDS011;14501;52.282;10.560;2022-09-09T02:07:48;6.28;;;1.88;;
26946;SDS011;14501;52.282;10.560;2022-09-09T02:12:40;3.15;;;1.60;;
26946;SDS011;14501;52.282;10.560;2022-09-09T02:15:27;4.63;;;2.10;;
26946;SDS011;14501;52.282;10.560;2022-09-09T02:18:00;6.18;;;1.98;;
26946;SDS011;14501;52.282;10.560;2022-09-09T02:20:33;5.15;;;1.85;;
26946;SDS011;14501;52.282;10.560;2022-09-09T02:23:01;9.90;;;1.90;;
26946;SDS011;14501;52.282;10.560;2022-09-09T02:25:28;4.55;;;1.80;;
26946;SDS011;14501;52.282;10.560;2022-09-09T02:27:55;3.45;;;2.13;;
26946;SDS011;14501;52.282;10.560;2022-09-09T02:30:25;5.85;;;2.00;;
26946;SDS011;14501;52.282;10.560;2022-09-09T02:32:54;3.50;;;1.88;;
26946;SDS011;14501;52.282;10.560;2022-09-09T02:35:23;3.67;;;2.17;;
26946;SDS011;14501;52.282;10.560;2022-09-09T02:37:51;4.50;;;1.83;;
26946;SDS011;14501;52.282;10.560;2022-09-09T02:40:19;3.97;;;1.80;;
26946;SDS011;14501;52.282;10.560;2022-09-09T02:42:47;6.32;;;2.42;;
26946;SDS011;14501;52.282;10.560;2022-09-09T02:45:14;5.50;;;2.50;;
26946;SDS011;14501;52.282;10.560;2022-09-09T02:50:53;5.20;;;2.20;;
26946;SDS011;14501;52.282;10.560;2022-09-09T02:53:26;5.95;;;2.30;;
26946;SDS011;14501;52.282;10.560;2022-09-09T02:56:15;6.75;;;2.40;;
26946;SDS011;14501;52.282;10.560;2022-09-09T02:58:43;4.00;;;2.10;;
26946;SDS011;14501;52.282;10.560;2022-09-09T03:01:09;3.25;;;2.63;;
26946;SDS011;14501;52.282;10.560;2022-09-09T03:03:35;8.52;;;2.60;;
26946;SDS011;14501;52.282;10.560;2022-09-09T03:06:01;4.70;;;2.50;;
26946;SDS011;14501;52.282;10.560;2022-09-09T03:08:26;5.80;;;2.50;;
26946;SDS011;14501;52.282;10.560;2022-09-09T03:10:53;6.15;;;2.45;;
26946;SDS011;14501;52.282;10.560;2022-09-09T03:13:19;4.97;;;2.30;;
26946;SDS011;14501;52.282;10.560;2022-09-09T03:15:45;8.10;;;2.60;;
26946;SDS011;14501;52.282;10.560;2022-09-09T03:18:13;2.63;;;2.20;;
26946;SDS011;14501;52.282;10.560;2022-09-09T03:20:38;8.38;;;2.42;;
26946;SDS011;14501;52.282;10.560;2022-09-09T03:23:04;6.03;;;2.53;;
26946;SDS011;14501;52.282;10.560;2022-09-09T03:25:29;6.13;;;2.65;;
26946;SDS011;14501;52.282;10.560;2022-09-09T03:27:55;4.95;;;2.50;;
26946;SDS011;14501;52.282;10.560;2022-09-09T03:30:22;2.88;;;2.13;;
26946;SDS011;14501;52.282;10.560;2022-09-09T03:32:48;3.58;;;2.15;;
26946;SDS011;14501;52.282;10.560;2022-09-09T03:35:14;5.10;;;2.13;;
26946;SDS011;14501;52.282;10.560;2022-09-09T03:37:40;5.38;;;2.35;;
26946;SDS011;14501;52.282;10.560;2022-09-09T03:40:06;4.65;;;2.30;;
26946;SDS011;14501;52.282;10.560;2022-09-09T03:42:34;9.65;;;2.30;;
26946;SDS011;14501;52.282;10.560;2022-09-09T03:45:02;8.30;;;2.50;;
26946;SDS011;14501;52.282;10.560;2022-09-09T03:47:28;5.05;;;2.60;;
26946;SDS011;14501;52.282;10.560;2022-09-09T03:49:54;5.70;;;2.55;;
26946;SDS011;14501;52.282;10.560;2022-09-09T03:52:20;6.15;;;2.30;;
26946;SDS011;14501;52.282;10.560;2022-09-09T03:54:49;3.08;;;2.00;;
26946;SDS011;14501;52.282;10.560;2022-09-09T03:57:16;9.02;;;2.58;;
26946;SDS011;14501;52.282;10.560;2022-09-09T03:59:42;7.50;;;2.67;;
26946;SDS011;14501;52.282;10.560;2022-09-09T04:02:08;5.68;;;2.70;;
26946;SDS011;14501;52.282;10.560;2022-09-09T04:04:34;6.85;;;2.90;;
26946;SDS011;14501;52.282;10.560;2022-09-09T04:06:59;9.00;;;2.75;;
26946;SDS011;14501;52.282;10.560;2022-09-09T04:09:25;7.00;;;3.25;;
26946;SDS011;14501;52.282;10.560;2022-09-09T04:11:51;5.90;;;2.97;;
26946;SDS011;14501;52.282;10.560;2022-09-09T04:14:18;7.35;;;3.05;;
26946;SDS011;14501;52.282;10.560;2022-09-09T04:16:43;6.68;;;2.83;;
26946;SDS011;14501;52.282;10.560;2022-09-09T04:19:09;5.50;;;2.55;;
26946;SDS011;14501;52.282;10.560;2022-09-09T04:21:37;7.20;;;3.00;;
26946;SDS011;14501;52.282;10.560;2022-09-09T04:24:04;14.60;;;3.47;;
26946;SDS011;14501;52.282;10.560;2022-09-09T04:26:31;4.28;;;2.85;;
26946;SDS011;14501;52.282;10.560;2022-09-09T04:28:56;7.28;;;3.53;;
26946;SDS011;14501;52.282;10.560;2022-09-09T04:31:22;4.63;;;3.08;;
26946;SDS011;14501;52.282;10.560;2022-09-09T04:33:51;9.15;;;5.30;;
26946;SDS011;14501;52.282;10.560;2022-09-09T04:36:17;8.98;;;5.50;;
26946;SDS011;14501;52.282;10.560;2022-09-09T04:38:44;9.77;;;3.63;;
26946;SDS011;14501;52.282;10.560;2022-09-09T04:41:11;6.25;;;3.78;;
26946;SDS011;14501;52.282;10.560;2022-09-09T04:43:37;6.15;;;3.35;;
26946;SDS011;14501;52.282;10.560;2022-09-09T04:46:03;9.65;;;3.33;;
26946;SDS011;14501;52.282;10.560;2022-09-09T04:48:29;6.55;;;2.75;;
26946;SDS011;14501;52.282;10.560;2022-09-09T04:53:28;7.95;;;2.88;;
26946;SDS011;14501;52.282;10.560;2022-09-09T04:56:03;5.88;;;2.90;;
26946;SDS011;14501;52.282;10.560;2022-09-09T04:58:30;13.02;;;2.70;;
26946;SDS011;14501;52.282;10.560;2022-09-09T05:01:04;5.38;;;2.75;;
26946;SDS011;14501;52.282;10.560;2022-09-09T05:03:34;5.80;;;2.92;;
26946;SDS011;14501;52.282;10.560;2022-09-09T05:06:10;4.88;;;2.88;;
26946;SDS011;14501;52.282;10.560;2022-09-09T05:08:37;8.52;;;3.55;;
26946;SDS011;14501;52.282;10.560;2022-09-09T05:11:04;11.27;;;3.70;;
26946;SDS011;14501;52.282;10.560;2022-09-09T05:13:43;6.18;;;2.80;;
26946;SDS011;14501;52.282;10.560;2022-09-09T05:16:09;8.45;;;3.60;;
26946;SDS011;14501;52.282;10.560;2022-09-09T05:18:38;10.50;;;3.45;;
26946;SDS011;14501;52.282;10.560;2022-09-09T05:21:04;9.38;;;3.22;;
26946;SDS011;14501;52.282;10.560;2022-09-09T05:23:31;8.38;;;3.45;;
26946;SDS011;14501;52.282;10.560;2022-09-09T05:25:58;5.43;;;3.20;;
26946;SDS011;14501;52.282;10.560;2022-09-09T05:28:25;7.47;;;2.72;;
26946;SDS011;14501;52.282;10.560;2022-09-09T05:30:55;7.47;;;3.05;;
26946;SDS011;14501;52.282;10.560;2022-09-09T05:33:22;8.23;;;2.70;;
26946;SDS011;14501;52.282;10.560;2022-09-09T05:35:48;6.30;;;2.60;;
26946;SDS011;14501;52.282;10.560;2022-09-09T05:38:24;5.55;;;1.88;;
26946;SDS011;14501;52.282;10.560;2022-09-09T05:40:50;5.60;;;2.40;;
26946;SDS011;14501;52.282;10.560;2022-09-09T05:43:17;6.35;;;2.53;;
26946;SDS011;14501;52.282;10.560;2022-09-09T05:45:44;6.43;;;2.22;;
26946;SDS011;14501;52.282;10.560;2022-09-09T05:48:17;7.15;;;2.53;;
26946;SDS011;14501;52.282;10.560;2022-09-09T05:50:42;3.95;;;2.20;;
26946;SDS011;14501;52.282;10.560;2022-09-09T05:53:10;7.38;;;2.50;;
26946;SDS011;14501;52.282;10.560;2022-09-09T05:55:36;5.60;;;2.17;;
26946;SDS011;14501;52.282;10.560;2022-09-09T05:58:02;8.65;;;2.00;;
26946;SDS011;14501;52.282;10.560;2022-09-09T06:00:27;3.72;;;2.33;;
26946;SDS011;14501;52.282;10.560;2022-09-09T06:02:54;4.93;;;1.80;;
26946;SDS011;14501;52.282;10.560;2022-09-09T06:05:20;6.40;;;1.90;;
26946;SDS011;14501;52.282;10.560;2022-09-09T06:07:47;4.25;;;2.75;;
26946;SDS011;14501;52.282;10.560;2022-09-09T06:10:13;4.47;;;1.83;;
26946;SDS011;14501;52.282;10.560;2022-09-09T06:12:39;3.67;;;1.75;;
26946;SDS011;14501;52.282;10.560;2022-09-09T06:15:05;4.57;;;2.10;;
26946;SDS011;14501;52.282;10.560;2022-09-09T06:17:31;4.95;;;2.45;;
26946;SDS011;14501;52.282;10.560;2022-09-09T06:19:56;6.28;;;2.05;;
26946;SDS011;14501;52.282;10.560;2022-09-09T06:22:22;7.10;;;2.20;;
26946;SDS011;14501;52.282;10.560;2022-09-09T06:24:47;4.45;;;1.77;;
26946;SDS011;14501;52.282;10.560;2022-09-09T06:27:13;4.50;;;1.63;;
26946;SDS011;14501;52.282;10.560;2022-09-09T06:29:39;5.05;;;1.63;;
26946;SDS011;14501;52.282;10.560;2022-09-09T06:32:04;5.68;;;1.60;;
26946;SDS011;14501;52.282;10.560;2022-09-09T06:34:30;8.40;;;2.88;;
26946;SDS011;14501;52.282;10.560;2022-09-09T06:36:56;4.75;;;1.60;;
26946;SDS011;14501;52.282;10.560;2022-09-09T06:39:23;3.67;;;2.13;;
26946;SDS011;14501;52.282;10.560;2022-09-09T06:41:48;2.85;;;2.00;;
26946;SDS011;14501;52.282;10.560;2022-09-09T06:44:17;5.90;;;1.80;;
26946;SDS011;14501;52.282;10.560;2022-09-09T06:46:44;3.55;;;1.73;;
26946;SDS011;14501;52.282;10.560;2022-09-09T06:49:11;9.27;;;1.48;;
26946;SDS011;14501;52.282;10.560;2022-09-09T06:51:38;5.78;;;1.98;;
26946;SDS011;14501;52.282;10.560;2022-09-09T06:54:07;4.68;;;1.98;;
26946;SDS011;14501;52.282;10.560;2022-09-09T06:56:35;5.75;;;1.50;;
26946;SDS011;14501;52.282;10.560;2022-09-09T06:59:03;2.65;;;1.40;;
26946;SDS011;14501;52.282;10.560;2022-09-09T07:01:32;3.33;;;1.52;;
26946;SDS011;14501;52.282;10.560;2022-09-09T07:03:59;4.95;;;1.25;;
26946;SDS011;14501;52.282;10.560;2022-09-09T07:06:29;5.07;;;1.27;;
26946;SDS011;14501;52.282;10.560;2022-09-09T07:09:06;6.70;;;1.52;;
26946;SDS011;14501;52.282;10.560;2022-09-09T07:11:43;5.90;;;1.55;;
26946;SDS011;14501;52.282;10.560;2022-09-09T07:14:14;5.45;;;1.38;;
26946;SDS011;14501;52.282;10.560;2022-09-09T07:16:40;3.63;;;1.02;;
26946;SDS011;14501;52.282;10.560;2022-09-09T07:19:07;3.65;;;1.40;;
26946;SDS011;14501;52.282;10.560;2022-09-09T07:21:32;4.25;;;1.58;;
26946;SDS011;14501;52.282;10.560;2022-09-09T07:23:58;4.45;;;1.40;;
26946;SDS011;14501;52.282;10.560;2022-09-09T07:26:25;3.85;;;1.27;;
26946;SDS011;14501;52.282;10.560;2022-09-09T07:28:53;3.83;;;1.10;;
26946;SDS011;14501;52.282;10.560;2022-09-09T07:31:22;7.22;;;1.60;;
26946;SDS011;14501;52.282;10.560;2022-09-09T07:33:52;2.03;;;1.00;;
26946;SDS011;14501;52.282;10.560;2022-09-09T07:36:19;6.38;;;1.27;;
26946;SDS011;14501;52.282;10.560;2022-09-09T07:38:56;7.57;;;1.30;;
26946;SDS011;14501;52.282;10.560;2022-09-09T07:41:27;6.03;;;1.40;;
26946;SDS011;14501;52.282;10.560;2022-09-09T07:43:59;5.15;;;1.58;;
26946;SDS011;14501;52.282;10.560;2022-09-09T07:46:28;8.98;;;1.35;;
26946;SDS011;14501;52.282;10.560;2022-09-09T07:48:54;8.85;;;1.27;;
26946;SDS011;14501;52.282;10.560;2022-09-09T07:51:25;2.88;;;0.80;;
26946;SDS011;14501;52.282;10.560;2022-09-09T07:53:57;1.77;;;0.73;;
26946;SDS011;14501;52.282;10.560;2022-09-09T07:56:25;2.20;;;0.90;;
26946;SDS011;14501;52.282;10.560;2022-09-09T07:58:51;1.90;;;1.15;;
26946;SDS011;14501;52.282;10.560;2022-09-09T08:03:51;3.92;;;1.10;;
26946;SDS011;14501;52.282;10.560;2022-09-09T08:06:19;2.80;;;1.38;;
26946;SDS011;14501;52.282;10.560;2022-09-09T08:08:45;3.47;;;1.23;;
26946;SDS011;14501;52.282;10.560;2022-09-09T08:11:15;4.00;;;1.23;;
26946;SDS011;14501;52.282;10.560;2022-09-09T08:13:42;5.70;;;1.60;;
26946;SDS011;14501;52.282;10.560;2022-09-09T08:16:13;4.30;;;1.25;;
26946;SDS011;14501;52.282;10.560;2022-09-09T08:18:40;5.10;;;1.42;;
26946;SDS011;14501;52.282;10.560;2022-09-09T08:23:42;4.93;;;1.70;;
26946;SDS011;14501;52.282;10.560;2022-09-09T08:26:11;3.00;;;1.10;;
26946;SDS011;14501;52.282;10.560;2022-09-09T08:28:42;28.15;;;3.08;;
26946;SDS011;14501;52.282;10.560;2022-09-09T08:31:12;2.00;;;1.10;;
26946;SDS011;14501;52.282;10.560;2022-09-09T08:33:40;3.40;;;1.27;;
26946;SDS011;14501;52.282;10.560;2022-09-09T08:36:08;3.53;;;1.15;;
26946;SDS011;14501;52.282;10.560;2022-09-09T08:38:36;4.63;;;1.25;;
26946;SDS011;14501;52.282;10.560;2022-09-09T08:43:43;2.03;;;0.90;;
26946;SDS011;14501;52.282;10.560;2022-09-09T08:48:55;4.85;;;1.20;;
26946;SDS011;14501;52.282;10.560;2022-09-09T08:51:42;6.00;;;1.40;;
26946;SDS011;14501;52.282;10.560;2022-09-09T08:54:08;4.60;;;1.42;;
26946;SDS011;14501;52.282;10.560;2022-09-09T08:56:35;4.10;;;1.55;;
26946;SDS011;14501;52.282;10.560;2022-09-09T08:59:01;5.03;;;1.60;;
26946;SDS011;14501;52.282;10.560;2022-09-09T09:04:26;2.90;;;1.20;;
26946;SDS011;14501;52.282;10.560;2022-09-09T09:10:00;4.05;;;1.77;;
26946;SDS011;14501;52.282;10.560;2022-09-09T09:12:46;3.35;;;1.38;;
26946;SDS011;14501;52.282;10.560;2022-09-09T09:15:19;4.43;;;1.30;;
26946;SDS011;14501;52.282;10.560;2022-09-09T09:17:48;5.07;;;1.50;;
26946;SDS011;14501;52.282;10.560;2022-09-09T09:20:15;5.07;;;1.48;;
26946;SDS011;14501;52.282;10.560;2022-09-09T09:22:47;7.32;;;1.13;;
26946;SDS011;14501;52.282;10.560;2022-09-09T09:30:49;4.20;;;1.40;;
26946;SDS011;14501;52.282;10.560;2022-09-09T09:36:19;7.15;;;1.77;;
26946;SDS011;14501;52.282;10.560;2022-09-09T09:38:55;6.95;;;1.60;;
26946;SDS011;14501;52.282;10.560;2022-09-09T09:41:29;8.50;;;1.77;;
26946;SDS011;14501;52.282;10.560;2022-09-09T09:43:56;5.55;;;1.25;;
26946;SDS011;14501;52.282;10.560;2022-09-09T09:46:22;13.63;;;1.98;;
26946;SDS011;14501;52.282;10.560;2022-09-09T09:49:03;5.82;;;1.27;;
26946;SDS011;14501;52.282;10.560;2022-09-09T09:51:31;3.88;;;1.15;;
26946;SDS011;14501;52.282;10.560;2022-09-09T09:54:09;4.90;;;1.45;;
26946;SDS011;14501;52.282;10.560;2022-09-09T09:56:40;4.13;;;1.42;;
26946;SDS011;14501;52.282;10.560;2022-09-09T10:01:45;5.53;;;1.67;;
26946;SDS011;14501;52.282;10.560;2022-09-09T10:04:15;3.55;;;1.02;;
26946;SDS011;14501;52.282;10.560;2022-09-09T10:06:44;2.95;;;1.23;;
26946;SDS011;14501;52.282;10.560;2022-09-09T10:14:39;3.67;;;1.33;;
26946;SDS011;14501;52.282;10.560;2022-09-09T10:17:55;4.78;;;1.75;;
26946;SDS011;14501;52.282;10.560;2022-09-09T10:23:46;3.85;;;1.40;;
26946;SDS011;14501;52.282;10.560;2022-09-09T10:29:39;5.45;;;1.83;;
26946;SDS011;14501;52.282;10.560;2022-09-09T10:59:57;4.82;;;1.73;;
26946;SDS011;14501;52.282;10.560;2022-09-09T11:02:30;3.55;;;1.00;;
26946;SDS011;14501;52.282;10.560;2022-09-09T11:07:39;5.75;;;1.70;;
26946;SDS011;14501;52.282;10.560;2022-09-09T11:10:53;4.45;;;1.15;;
26946;SDS011;14501;52.282;10.560;2022-09-09T11:13:24;4.07;;;1.50;;
26946;SDS011;14501;52.282;10.560;2022-09-09T11:15:59;5.05;;;1.92;;
26946;SDS011;14501;52.282;10.560;2022-09-09T11:18:44;6.97;;;2.20;;
26946;SDS011;14501;52.282;10.560;2022-09-09T11:21:34;5.70;;;2.22;;
26946;SDS011;14501;52.282;10.560;2022-09-09T11:24:05;7.30;;;2.60;;
26946;SDS011;14501;52.282;10.560;2022-09-09T11:26:39;3.67;;;2.08;;
26946;SDS011;14501;52.282;10.560;2022-09-09T11:40:42;6.90;;;1.73;;
26946;SDS011;14501;52.282;10.560;2022-09-09T11:43:18;6.35;;;1.65;;
26946;SDS011;14501;52.282;10.560;2022-09-09T11:45:57;5.78;;;1.75;;
26946;SDS011;14501;52.282;10.560;2022-09-09T11:51:10;5.38;;;1.35;;
26946;SDS011;14501;52.282;10.560;2022-09-09T11:53:48;4.28;;;1.00;;
26946;SDS011;14501;52.282;10.560;2022-09-09T12:04:59;3.35;;;1.30;;
26946;SDS011;14501;52.282;10.560;2022-09-09T12:10:32;4.65;;;1.20;;
26946;SDS011;14501;52.282;10.560;2022-09-09T12:13:15;5.80;;;1.00;;
26946;SDS011;14501;52.282;10.560;2022-09-09T12:15:51;5.35;;;1.45;;
26946;SDS011;14501;52.282;10.560;2022-09-09T12:18:37;2.50;;;0.80;;
26946;SDS011;14501;52.282;10.560;2022-09-09T12:21:19;3.78;;;0.98;;
26946;SDS011;14501;52.282;10.560;2022-09-09T12:24:08;3.67;;;1.00;;
26946;SDS011;14501;52.282;10.560;2022-09-09T12:26:41;6.72;;;1.15;;
26946;SDS011;14501;52.282;10.560;2022-09-09T12:29:18;4.05;;;1.27;;
26946;SDS011;14501;52.282;10.560;2022-09-09T12:31:56;5.10;;;1.25;;
26946;SDS011;14501;52.282;10.560;2022-09-09T12:34:55;7.40;;;1.40;;
26946;SDS011;14501;52.282;10.560;2022-09-09T12:37:52;4.38;;;1.33;;
26946;SDS011;14501;52.282;10.560;2022-09-09T12:40:29;7.75;;;1.20;;
26946;SDS011;14501;52.282;10.560;2022-09-09T12:42:57;3.47;;;0.90;;
26946;SDS011;14501;52.282;10.560;2022-09-09T12:45:28;4.93;;;0.90;;
26946;SDS011;14501;52.282;10.560;2022-09-09T12:50:34;2.45;;;0.75;;
26946;SDS011;14501;52.282;10.560;2022-09-09T12:53:11;4.50;;;1.13;;
26946;SDS011;14501;52.282;10.560;2022-09-09T12:58:28;7.90;;;1.38;;
26946;SDS011;14501;52.282;10.560;2022-09-09T13:00:58;5.50;;;1.42;;
26946;SDS011;14501;52.282;10.560;2022-09-09T13:03:25;4.32;;;1.10;;
26946;SDS011;14501;52.282;10.560;2022-09-09T13:05:52;4.18;;;1.23;;
26946;SDS011;14501;52.282;10.560;2022-09-09T13:08:19;4.80;;;1.02;;
26946;SDS011;14501;52.282;10.560;2022-09-09T13:13:29;5.18;;;0.90;;
26946;SDS011;14501;52.282;10.560;2022-09-09T13:16:05;7.57;;;1.10;;
26946;SDS011;14501;52.282;10.560;2022-09-09T13:18:41;3.00;;;1.20;;
26946;SDS011;14501;52.282;10.560;2022-09-09T13:21:07;2.90;;;1.02;;
26946;SDS011;14501;52.282;10.560;2022-09-09T13:23:33;2.10;;;0.90;;
26946;SDS011;14501;52.282;10.560;2022-09-09T13:26:02;1.42;;;0.80;;
26946;SDS011;14501;52.282;10.560;2022-09-09T13:28:43;2.75;;;0.70;;
26946;SDS011;14501;52.282;10.560;2022-09-09T13:31:24;8.85;;;1.30;;
26946;SDS011;14501;52.282;10.560;2022-09-09T13:33:54;6.03;;;1.50;;
26946;SDS011;14501;52.282;10.560;2022-09-09T13:36:27;4.57;;;1.13;;
26946;SDS011;14501;52.282;10.560;2022-09-09T13:39:00;7.20;;;1.70;;
26946;SDS011;14501;52.282;10.560;2022-09-09T13:41:29;4.65;;;1.20;;
26946;SDS011;14501;52.282;10.560;2022-09-09T13:44:00;5.00;;;1.10;;
26946;SDS011;14501;52.282;10.560;2022-09-09T13:46:38;3.15;;;1.23;;
26946;SDS011;14501;52.282;10.560;2022-09-09T13:51:43;2.83;;;0.98;;
26946;SDS011;14501;52.282;10.560;2022-09-09T13:54:12;11.27;;;1.27;;
26946;SDS011;14501;52.282;10.560;2022-09-09T13:56:39;3.40;;;1.20;;
26946;SDS011;14501;52.282;10.560;2022-09-09T13:59:09;4.03;;;1.00;;
26946;SDS011;14501;52.282;10.560;2022-09-09T14:01:40;4.85;;;1.38;;
26946;SDS011;14501;52.282;10.560;2022-09-09T14:04:06;4.03;;;1.15;;
26946;SDS011;14501;52.282;10.560;2022-09-09T14:06:33;3.42;;;1.05;;
26946;SDS011;14501;52.282;10.560;2022-09-09T14:09:02;2.05;;;0.80;;
26946;SDS011;14501;52.282;10.560;2022-09-09T14:11:28;1.80;;;0.70;;
26946;SDS011;14501;52.282;10.560;2022-09-09T14:13:53;5.72;;;0.80;;
26946;SDS011;14501;52.282;10.560;2022-09-09T14:16:19;2.85;;;0.65;;
26946;SDS011;14501;52.282;10.560;2022-09-09T14:18:46;1.35;;;0.70;;
26946;SDS011;14501;52.282;10.560;2022-09-09T14:21:12;1.65;;;0.82;;
26946;SDS011;14501;52.282;10.560;2022-09-09T14:23:40;3.45;;;0.93;;
26946;SDS011;14501;52.282;10.560;2022-09-09T14:26:06;2.53;;;0.63;;
26946;SDS011;14501;52.282;10.560;2022-09-09T14:28:33;1.73;;;0.77;;
26946;SDS011;14501;52.282;10.560;2022-09-09T14:31:00;2.70;;;0.80;;
26946;SDS011;14501;52.282;10.560;2022-09-09T14:33:27;3.13;;;0.70;;
26946;SDS011;14501;52.282;10.560;2022-09-09T14:35:57;3.47;;;0.90;;
26946;SDS011;14501;52.282;10.560;2022-09-09T14:38:25;4.57;;;0.98;;
26946;SDS011;14501;52.282;10.560;2022-09-09T14:40:53;5.40;;;1.10;;
26946;SDS011;14501;52.282;10.560;2022-09-09T14:43:19;3.75;;;1.05;;
26946;SDS011;14501;52.282;10.560;2022-09-09T14:45:45;4.10;;;1.55;;
26946;SDS011;14501;52.282;10.560;2022-09-09T14:48:13;3.40;;;1.20;;
26946;SDS011;14501;52.282;10.560;2022-09-09T14:50:39;5.30;;;1.20;;
26946;SDS011;14501;52.282;10.560;2022-09-09T14:53:06;3.58;;;1.20;;
26946;SDS011;14501;52.282;10.560;2022-09-09T14:55:32;4.35;;;1.35;;
26946;SDS011;14501;52.282;10.560;2022-09-09T14:57:58;6.03;;;1.30;;
26946;SDS011;14501;52.282;10.560;2022-09-09T15:00:23;3.60;;;1.05;;
26946;SDS011;14501;52.282;10.560;2022-09-09T15:02:52;4.03;;;1.30;;
26946;SDS011;14501;52.282;10.560;2022-09-09T15:05:18;3.35;;;1.02;;
26946;SDS011;14501;52.282;10.560;2022-09-09T15:07:44;6.85;;;1.23;;
26946;SDS011;14501;52.282;10.560;2022-09-09T15:10:10;5.13;;;1.25;;
26946;SDS011;14501;52.282;10.560;2022-09-09T15:12:36;2.58;;;1.10;;
26946;SDS011;14501;52.282;10.560;2022-09-09T15:15:03;2.30;;;0.90;;
26946;SDS011;14501;52.282;10.560;2022-09-09T15:17:29;3.17;;;1.13;;
26946;SDS011;14501;52.282;10.560;2022-09-09T15:19:55;5.50;;;1.20;;
26946;SDS011;14501;52.282;10.560;2022-09-09T15:22:21;5.90;;;0.90;;
26946;SDS011;14501;52.282;10.560;2022-09-09T15:24:49;4.85;;;1.52;;
26946;SDS011;14501;52.282;10.560;2022-09-09T15:27:15;4.22;;;1.33;;
26946;SDS011;14501;52.282;10.560;2022-09-09T15:29:41;4.50;;;1.48;;
26946;SDS011;14501;52.282;10.560;2022-09-09T15:32:07;2.85;;;1.38;;
26946;SDS011;14501;52.282;10.560;2022-09-09T15:34:33;3.17;;;1.08;;
26946;SDS011;14501;52.282;10.560;2022-09-09T15:36:58;5.75;;;1.10;;
26946;SDS011;14501;52.282;10.560;2022-09-09T15:39:25;5.18;;;1.33;;
26946;SDS011;14501;52.282;10.560;2022-09-09T15:41:50;5.15;;;1.25;;
26946;SDS011;14501;52.282;10.560;2022-09-09T15:44:16;5.43;;;1.35;;
26946;SDS011;14501;52.282;10.560;2022-09-09T15:49:12;6.45;;;1.30;;
26946;SDS011;14501;52.282;10.560;2022-09-09T15:51:50;3.88;;;1.15;;
26946;SDS011;14501;52.282;10.560;2022-09-09T15:54:19;7.57;;;1.20;;
26946;SDS011;14501;52.282;10.560;2022-09-09T15:56:49;3.83;;;1.00;;
26946;SDS011;14501;52.282;10.560;2022-09-09T15:59:16;3.38;;;1.58;;
26946;SDS011;14501;52.282;10.560;2022-09-09T16:01:43;9.00;;;1.23;;
26946;SDS011;14501;52.282;10.560;2022-09-09T16:04:09;2.65;;;1.05;;
26946;SDS011;14501;52.282;10.560;2022-09-09T16:06:35;3.85;;;1.20;;
26946;SDS011;14501;52.282;10.560;2022-09-09T16:09:02;3.38;;;0.80;;
26946;SDS011;14501;52.282;10.560;2022-09-09T16:11:30;4.90;;;1.38;;
26946;SDS011;14501;52.282;10.560;2022-09-09T16:13:58;5.72;;;0.88;;
26946;SDS011;14501;52.282;10.560;2022-09-09T16:16:25;3.80;;;0.93;;
26946;SDS011;14501;52.282;10.560;2022-09-09T16:18:53;4.10;;;0.98;;
26946;SDS011;14501;52.282;10.560;2022-09-09T16:21:28;4.75;;;1.05;;
26946;SDS011;14501;52.282;10.560;2022-09-09T16:23:55;4.68;;;1.13;;
26946;SDS011;14501;52.282;10.560;2022-09-09T16:26:24;3.75;;;1.13;;
26946;SDS011;14501;52.282;10.560;2022-09-09T16:28:50;2.90;;;0.90;;
26946;SDS011;14501;52.282;10.560;2022-09-09T16:31:19;6.07;;;1.17;;
26946;SDS011;14501;52.282;10.560;2022-09-09T16:33:46;2.33;;;1.08;;
26946;SDS011;14501;52.282;10.560;2022-09-09T16:36:23;3.58;;;0.90;;
26946;SDS011;14501;52.282;10.560;2022-09-09T16:38:54;2.63;;;0.90;;
26946;SDS011;14501;52.282;10.560;2022-09-09T16:41:22;3.75;;;1.10;;
26946;SDS011;14501;52.282;10.560;2022-09-09T16:43:52;1.63;;;0.70;;
26946;SDS011;14501;52.282;10.560;2022-09-09T16:46:19;3.75;;;1.00;;
26946;SDS011;14501;52.282;10.560;2022-09-09T16:48:46;4.05;;;0.90;;
26946;SDS011;14501;52.282;10.560;2022-09-09T16:53:44;5.78;;;1.00;;
26946;SDS011;14501;52.282;10.560;2022-09-09T16:56:11;2.20;;;0.90;;
26946;SDS011;14501;52.282;10.560;2022-09-09T16:58:39;2.85;;;0.93;;
26946;SDS011;14501;52.282;10.560;2022-09-09T17:01:04;3.67;;;1.20;;
26946;SDS011;14501;52.282;10.560;2022-09-09T17:03:31;3.38;;;0.95;;
26946;SDS011;14501;52.282;10.560;2022-09-09T17:05:57;1.63;;;0.85;;
26946;SDS011;14501;52.282;10.560;2022-09-09T17:08:27;5.72;;;1.20;;